Time;durP1;ratioP1;P1;durP2;ratioP2;P2;SDS_P1;SDS_P2;PMS_P1;PMS_P2;Temp;Humidity;BMP_temperature;BMP_pressure;BME280_temperature;BME280_humidity;BME280_pressure;Samples;Min_cycle;Max_cycle;Signal;HPM_P1;HPM_P2
2021/05/13 00:00:33;;;;;;;4.28;3.50;;;;;;;;;;5093252;28;20032;-46
2021/05/13 00:02:59;;;;;;;6.68;3.15;;;;;;;;;;5093793;28;20039;-46
2021/05/13 00:05:25;;;;;;;7.68;3.15;;;;;;;;;;5093878;28;20028;-46
2021/05/13 00:07:51;;;;;;;6.82;3.58;;;;;;;;;;5093714;28;20059;-46
2021/05/13 00:10:20;;;;;;;7.57;2.92;;;;;;;;;;5092383;28;20437;-46
2021/05/13 00:15:18;;;;;;;5.43;2.63;;;;;;;;;;5093595;28;20040;-46
2021/05/13 00:17:44;;;;;;;6.68;3.03;;;;;;;;;;5093519;28;20020;-46
2021/05/13 00:20:11;;;;;;;5.65;2.60;;;;;;;;;;5092830;28;20020;-47
2021/05/13 00:22:37;;;;;;;8.60;2.40;;;;;;;;;;5093697;28;20031;-47
2021/05/13 00:25:05;;;;;;;9.25;3.20;;;;;;;;;;5093253;28;20089;-46
2021/05/13 00:27:31;;;;;;;4.18;2.33;;;;;;;;;;5093130;28;20357;-46
2021/05/13 00:29:57;;;;;;;3.60;2.40;;;;;;;;;;5093013;28;20030;-46
2021/05/13 00:32:23;;;;;;;7.53;2.90;;;;;;;;;;5093343;28;20020;-47
2021/05/13 00:34:49;;;;;;;6.72;2.47;;;;;;;;;;5092912;28;20442;-46
2021/05/13 00:37:15;;;;;;;5.65;2.60;;;;;;;;;;5093193;28;20074;-46
2021/05/13 00:39:41;;;;;;;3.22;2.50;;;;;;;;;;5093053;28;20024;-46
2021/05/13 00:42:07;;;;;;;3.78;2.40;;;;;;;;;;5092741;28;20434;-46
2021/05/13 00:44:35;;;;;;;5.13;2.67;;;;;;;;;;5093255;28;20052;-46
2021/05/13 00:47:01;;;;;;;4.53;2.45;;;;;;;;;;5093348;28;20055;-46
2021/05/13 00:49:27;;;;;;;13.13;3.28;;;;;;;;;;5093358;28;20021;-46
2021/05/13 00:51:54;;;;;;;6.30;2.72;;;;;;;;;;5092752;28;20073;-46
2021/05/13 00:54:20;;;;;;;4.30;2.45;;;;;;;;;;5092866;28;20514;-46
2021/05/13 00:56:46;;;;;;;4.95;2.40;;;;;;;;;;5093015;28;20024;-46
2021/05/13 00:59:13;;;;;;;3.92;2.75;;;;;;;;;;5093361;28;20485;-46
2021/05/13 01:04:12;;;;;;;2.38;1.95;;;;;;;;;;5093415;28;20035;-47
2021/05/13 01:06:38;;;;;;;14.23;2.33;;;;;;;;;;5092799;28;20028;-46
2021/05/13 01:09:08;;;;;;;3.83;2.40;;;;;;;;;;5073094;28;20032;-46
2021/05/13 01:11:39;;;;;;;4.70;2.17;;;;;;;;;;5072655;28;20025;-46
2021/05/13 01:14:16;;;;;;;6.45;2.97;;;;;;;;;;5072834;28;20048;-46
2021/05/13 01:16:55;;;;;;;6.22;2.20;;;;;;;;;;5072873;28;20070;-46
2021/05/13 01:19:21;;;;;;;5.10;2.35;;;;;;;;;;5072586;28;20037;-46
2021/05/13 01:21:47;;;;;;;4.97;2.33;;;;;;;;;;5072272;28;20021;-46
2021/05/13 01:24:13;;;;;;;4.05;2.15;;;;;;;;;;5076439;28;20027;-47
2021/05/13 01:26:47;;;;;;;5.03;2.20;;;;;;;;;;5076617;28;20048;-46
2021/05/13 01:29:14;;;;;;;3.83;2.28;;;;;;;;;;5096437;28;20032;-46
2021/05/13 01:31:40;;;;;;;6.55;2.80;;;;;;;;;;5095928;28;20123;-46
2021/05/13 01:34:07;;;;;;;3.40;2.13;;;;;;;;;;5096367;28;20028;-46
2021/05/13 01:36:33;;;;;;;4.10;2.47;;;;;;;;;;5096168;28;20591;-46
2021/05/13 01:39:00;;;;;;;5.57;2.33;;;;;;;;;;5096533;28;20016;-46
2021/05/13 01:41:26;;;;;;;5.03;2.58;;;;;;;;;;5094649;28;20027;-47
2021/05/13 01:43:52;;;;;;;7.10;2.60;;;;;;;;;;5076069;28;20437;-46
2021/05/13 01:46:18;;;;;;;5.05;2.17;;;;;;;;;;5075318;28;20024;-46
2021/05/13 01:48:44;;;;;;;7.10;2.50;;;;;;;;;;5076180;28;20040;-46
2021/05/13 01:51:11;;;;;;;4.75;2.80;;;;;;;;;;5080666;28;20442;-46
2021/05/13 01:53:40;;;;;;;8.32;2.30;;;;;;;;;;5096308;28;20474;-46
2021/05/13 01:56:07;;;;;;;9.73;2.50;;;;;;;;;;5096297;28;20016;-46
2021/05/13 01:58:33;;;;;;;5.97;2.17;;;;;;;;;;5095872;28;20050;-47
2021/05/13 02:00:59;;;;;;;6.38;2.60;;;;;;;;;;5095692;28;20335;-46
2021/05/13 02:03:26;;;;;;;9.93;3.35;;;;;;;;;;5095955;28;20020;-46
2021/05/13 02:05:52;;;;;;;3.63;2.22;;;;;;;;;;5095994;28;20036;-46
2021/05/13 02:08:18;;;;;;;3.00;2.38;;;;;;;;;;5095816;28;20081;-46
2021/05/13 02:10:44;;;;;;;4.80;2.83;;;;;;;;;;5095596;28;20031;-46
2021/05/13 02:13:10;;;;;;;6.00;2.53;;;;;;;;;;5095424;28;20449;-47
2021/05/13 02:15:36;;;;;;;5.13;2.42;;;;;;;;;;5095519;28;20515;-46
2021/05/13 02:18:03;;;;;;;3.25;2.00;;;;;;;;;;5096296;28;20099;-46
2021/05/13 02:20:29;;;;;;;5.68;2.47;;;;;;;;;;5095350;28;20020;-46
2021/05/13 02:22:57;;;;;;;4.93;2.33;;;;;;;;;;5095296;28;20027;-46
2021/05/13 02:25:25;;;;;;;4.95;2.72;;;;;;;;;;5096159;28;20024;-46
2021/05/13 02:27:59;;;;;;;6.43;2.88;;;;;;;;;;5094955;28;20067;-46
2021/05/13 02:30:25;;;;;;;5.13;2.60;;;;;;;;;;5090403;28;20040;-46
2021/05/13 02:32:52;;;;;;;4.13;2.63;;;;;;;;;;5095409;28;20099;-46
2021/05/13 02:35:18;;;;;;;4.13;2.22;;;;;;;;;;5094401;28;20039;-46
2021/05/13 02:37:44;;;;;;;5.13;2.40;;;;;;;;;;5095308;28;20441;-46
2021/05/13 02:40:11;;;;;;;3.30;2.17;;;;;;;;;;5094711;28;20020;-46
2021/05/13 02:42:37;;;;;;;3.70;2.13;;;;;;;;;;5095194;28;20024;-47
2021/05/13 02:45:05;;;;;;;3.83;2.10;;;;;;;;;;5094914;28;20051;-46
2021/05/13 02:47:31;;;;;;;3.05;2.45;;;;;;;;;;5095364;28;20353;-46
2021/05/13 02:49:57;;;;;;;4.35;2.53;;;;;;;;;;5094914;28;20024;-47
2021/05/13 02:52:23;;;;;;;3.13;2.08;;;;;;;;;;5094749;28;20031;-46
2021/05/13 02:54:49;;;;;;;4.68;2.22;;;;;;;;;;5094858;28;20032;-46
2021/05/13 02:57:16;;;;;;;3.90;2.58;;;;;;;;;;5094425;28;20020;-46
2021/05/13 02:59:47;;;;;;;3.08;2.42;;;;;;;;;;5094559;28;20028;-47
2021/05/13 03:02:13;;;;;;;2.35;1.80;;;;;;;;;;5094608;28;20077;-46
2021/05/13 03:04:40;;;;;;;2.67;2.05;;;;;;;;;;5094598;28;20087;-46
2021/05/13 03:07:06;;;;;;;3.08;2.30;;;;;;;;;;5094496;28;20016;-46
2021/05/13 03:09:35;;;;;;;4.72;2.30;;;;;;;;;;5094499;28;20349;-47
2021/05/13 03:12:01;;;;;;;8.07;2.60;;;;;;;;;;5094081;28;20017;-47
2021/05/13 03:14:27;;;;;;;3.45;2.58;;;;;;;;;;5094178;28;20040;-47
2021/05/13 03:16:54;;;;;;;3.53;2.15;;;;;;;;;;5094784;28;20012;-46
2021/05/13 03:19:27;;;;;;;3.72;2.38;;;;;;;;;;5094626;28;20070;-47
2021/05/13 03:21:56;;;;;;;1.80;1.55;;;;;;;;;;5094417;28;20020;-46
2021/05/13 03:24:45;;;;;;;2.83;2.20;;;;;;;;;;5094406;28;20361;-46
2021/05/13 03:27:15;;;;;;;3.40;1.88;;;;;;;;;;5094258;28;20115;-46
2021/05/13 03:29:41;;;;;;;5.38;2.20;;;;;;;;;;5094124;28;20058;-46
2021/05/13 03:32:07;;;;;;;4.88;2.53;;;;;;;;;;5093780;28;20457;-46
2021/05/13 03:34:33;;;;;;;4.85;2.15;;;;;;;;;;5094033;28;20036;-46
2021/05/13 03:36:59;;;;;;;6.25;2.05;;;;;;;;;;5094116;28;20016;-46
2021/05/13 03:39:25;;;;;;;3.78;2.10;;;;;;;;;;5093819;28;20377;-46
2021/05/13 03:41:51;;;;;;;4.78;2.30;;;;;;;;;;5093610;28;20027;-46
2021/05/13 03:44:17;;;;;;;4.32;2.53;;;;;;;;;;5094142;28;20085;-47
2021/05/13 03:46:43;;;;;;;3.83;2.40;;;;;;;;;;5093653;28;20020;-47
2021/05/13 03:49:09;;;;;;;3.58;2.38;;;;;;;;;;5093678;28;20024;-46
2021/05/13 03:51:35;;;;;;;7.03;2.70;;;;;;;;;;5093315;28;20065;-46
2021/05/13 03:54:01;;;;;;;5.03;2.58;;;;;;;;;;5093772;28;20444;-47
2021/05/13 03:56:27;;;;;;;4.93;2.65;;;;;;;;;;5093206;28;20023;-46
2021/05/13 03:58:55;;;;;;;4.72;2.58;;;;;;;;;;5093764;28;20028;-46
2021/05/13 04:01:45;;;;;;;4.72;2.75;;;;;;;;;;5093170;28;20051;-46
2021/05/13 04:04:08;;;;;;;3.97;2.28;;;;;;;;;;5093606;28;20032;-46
2021/05/13 04:06:34;;;;;;;4.75;2.67;;;;;;;;;;5093338;28;20326;-46
2021/05/13 04:09:00;;;;;;;3.65;2.53;;;;;;;;;;5074143;28;20028;-46
2021/05/13 04:11:26;;;;;;;3.05;2.22;;;;;;;;;;5071317;28;20028;-47
2021/05/13 04:13:52;;;;;;;5.10;2.65;;;;;;;;;;5072890;28;20035;-47
2021/05/13 04:16:26;;;;;;;4.50;2.95;;;;;;;;;;5072348;28;20477;-46
2021/05/13 04:18:52;;;;;;;8.45;3.20;;;;;;;;;;5091064;28;20107;-47
2021/05/13 04:21:18;;;;;;;7.78;3.20;;;;;;;;;;5092272;28;20028;-46
2021/05/13 04:23:44;;;;;;;4.57;2.72;;;;;;;;;;5092807;28;20020;-47
2021/05/13 04:26:10;;;;;;;4.35;2.83;;;;;;;;;;5092552;28;20020;-47
2021/05/13 04:28:36;;;;;;;4.95;3.13;;;;;;;;;;5092747;28;20024;-46
2021/05/13 04:31:02;;;;;;;7.78;2.80;;;;;;;;;;5092724;28;20099;-47
2021/05/13 04:33:28;;;;;;;6.10;3.00;;;;;;;;;;5092830;28;20032;-46
2021/05/13 04:35:54;;;;;;;12.95;2.92;;;;;;;;;;5093016;28;20494;-46
2021/05/13 04:38:20;;;;;;;5.20;2.60;;;;;;;;;;5091832;28;20446;-46
2021/05/13 04:40:49;;;;;;;6.15;3.28;;;;;;;;;;5092297;28;20315;-47
2021/05/13 04:43:15;;;;;;;3.35;2.42;;;;;;;;;;5091999;28;20498;-47
2021/05/13 04:45:41;;;;;;;4.47;2.83;;;;;;;;;;5090969;28;20027;-46
2021/05/13 04:48:12;;;;;;;4.32;2.10;;;;;;;;;;5089787;28;20024;-46
2021/05/13 04:50:37;;;;;;;4.57;2.40;;;;;;;;;;5089909;28;20107;-46
2021/05/13 04:53:08;;;;;;;6.95;2.78;;;;;;;;;;5092893;28;20159;-46
2021/05/13 04:55:34;;;;;;;;;;;;;;;;;;5090542;28;20040;-46
2021/05/13 04:58:00;;;;;;;2.95;2.05;;;;;;;;;;5096453;28;19915;-46
2021/05/13 05:00:26;;;;;;;4.18;2.65;;;;;;;;;;5095674;28;20016;-46
2021/05/13 05:02:52;;;;;;;7.22;2.33;;;;;;;;;;5095763;28;20024;-46
2021/05/13 05:05:18;;;;;;;3.75;2.05;;;;;;;;;;5095303;28;20036;-46
2021/05/13 05:07:44;;;;;;;2.85;1.98;;;;;;;;;;5095516;28;20386;-46
2021/05/13 05:10:10;;;;;;;5.75;2.50;;;;;;;;;;5093735;28;20038;-47
2021/05/13 05:12:36;;;;;;;3.67;2.33;;;;;;;;;;5095598;28;20395;-47
2021/05/13 05:15:02;;;;;;;3.58;2.38;;;;;;;;;;5095770;28;20517;-46
2021/05/13 05:17:28;;;;;;;5.15;2.65;;;;;;;;;;5097021;28;20031;-46
2021/05/13 05:19:54;;;;;;;7.78;3.47;;;;;;;;;;5096194;28;20036;-46
2021/05/13 05:22:20;;;;;;;8.77;3.08;;;;;;;;;;5096086;28;20031;-46
2021/05/13 05:24:46;;;;;;;7.32;3.20;;;;;;;;;;5096815;28;20035;-47
2021/05/13 05:27:12;;;;;;;8.25;2.72;;;;;;;;;;5096333;28;20027;-46
2021/05/13 05:29:38;;;;;;;4.13;2.92;;;;;;;;;;5096524;28;20044;-46
2021/05/13 05:32:04;;;;;;;4.47;3.00;;;;;;;;;;5095756;28;20046;-46
2021/05/13 05:34:30;;;;;;;5.63;2.92;;;;;;;;;;5093950;28;20027;-46
2021/05/13 05:36:56;;;;;;;5.10;2.83;;;;;;;;;;5090553;28;20123;-46
2021/05/13 05:39:22;;;;;;;6.70;2.85;;;;;;;;;;5084997;28;20022;-46
2021/05/13 05:41:48;;;;;;;8.57;2.88;;;;;;;;;;5096142;28;20467;-46
2021/05/13 05:44:14;;;;;;;5.45;3.33;;;;;;;;;;5095927;28;20019;-46
2021/05/13 05:46:41;;;;;;;3.67;2.30;;;;;;;;;;5096288;28;20360;-46
2021/05/13 05:49:07;;;;;;;4.65;2.80;;;;;;;;;;5091425;28;20028;-46
2021/05/13 05:51:33;;;;;;;3.88;2.67;;;;;;;;;;5090421;28;20047;-47
2021/05/13 05:53:59;;;;;;;7.60;3.08;;;;;;;;;;5089994;28;20442;-46
2021/05/13 05:56:25;;;;;;;5.93;3.05;;;;;;;;;;5096087;28;20043;-46
2021/05/13 05:58:51;;;;;;;7.18;2.80;;;;;;;;;;5095978;28;20028;-47
2021/05/13 06:01:17;;;;;;;5.30;3.35;;;;;;;;;;5095675;28;20039;-46
2021/05/13 06:03:43;;;;;;;8.50;3.35;;;;;;;;;;5095663;28;20349;-46
2021/05/13 06:06:09;;;;;;;5.50;2.17;;;;;;;;;;5095624;28;20020;-46
2021/05/13 06:08:35;;;;;;;4.22;2.70;;;;;;;;;;5094882;28;20035;-46
2021/05/13 06:11:01;;;;;;;7.38;2.92;;;;;;;;;;5095771;28;20021;-46
2021/05/13 06:13:27;;;;;;;6.25;2.58;;;;;;;;;;5095368;28;20414;-46
2021/05/13 06:15:53;;;;;;;9.55;2.88;;;;;;;;;;5095674;28;20032;-46
2021/05/13 06:18:19;;;;;;;3.22;2.28;;;;;;;;;;5094679;28;20088;-46
2021/05/13 06:20:45;;;;;;;4.40;2.63;;;;;;;;;;5095430;28;20047;-46
2021/05/13 06:23:11;;;;;;;4.40;2.45;;;;;;;;;;5095017;28;20441;-46
2021/05/13 06:25:37;;;;;;;3.45;2.53;;;;;;;;;;5095580;28;20031;-47
2021/05/13 06:28:04;;;;;;;7.07;2.50;;;;;;;;;;5095254;28;20020;-47
2021/05/13 06:30:30;;;;;;;4.25;2.45;;;;;;;;;;5094996;28;20150;-46
2021/05/13 06:32:56;;;;;;;4.47;2.92;;;;;;;;;;5094593;28;20043;-46
2021/05/13 06:35:22;;;;;;;5.45;3.00;;;;;;;;;;5095195;28;20035;-46
2021/05/13 06:37:48;;;;;;;2.50;2.30;;;;;;;;;;5095333;28;20050;-46
2021/05/13 06:40:14;;;;;;;6.63;2.50;;;;;;;;;;5094964;28;20020;-46
2021/05/13 06:42:41;;;;;;;4.55;2.70;;;;;;;;;;5095196;28;20020;-46
2021/05/13 06:45:08;;;;;;;3.67;2.40;;;;;;;;;;5095109;28;20106;-47
2021/05/13 06:47:34;;;;;;;5.47;2.65;;;;;;;;;;5094994;28;20085;-46
2021/05/13 06:50:00;;;;;;;7.05;3.10;;;;;;;;;;5094765;28;20024;-46
2021/05/13 06:52:26;;;;;;;6.43;2.90;;;;;;;;;;5094451;28;20026;-46
2021/05/13 06:54:52;;;;;;;8.95;2.92;;;;;;;;;;5094543;28;20445;-46
2021/05/13 06:57:18;;;;;;;4.25;3.10;;;;;;;;;;5094436;28;20084;-46
2021/05/13 06:59:45;;;;;;;3.08;2.50;;;;;;;;;;5094195;28;20024;-46
2021/05/13 07:02:12;;;;;;;4.13;2.35;;;;;;;;;;5094257;28;20408;-46
2021/05/13 07:04:38;;;;;;;4.20;3.03;;;;;;;;;;5094514;28;20028;-46
2021/05/13 07:07:04;;;;;;;4.93;3.15;;;;;;;;;;5094806;28;20020;-47
2021/05/13 07:09:30;;;;;;;6.15;2.97;;;;;;;;;;5094548;28;20016;-46
2021/05/13 07:11:56;;;;;;;6.82;3.05;;;;;;;;;;5094289;28;20024;-46
2021/05/13 07:14:23;;;;;;;6.53;3.00;;;;;;;;;;5093701;28;20099;-46
2021/05/13 07:16:49;;;;;;;6.18;2.72;;;;;;;;;;5094566;28;20036;-46
2021/05/13 07:19:15;;;;;;;9.00;3.05;;;;;;;;;;5094329;28;20020;-47
2021/05/13 07:21:41;;;;;;;4.28;2.30;;;;;;;;;;5090576;28;20357;-47
2021/05/13 07:24:08;;;;;;;8.13;2.92;;;;;;;;;;5094042;28;20441;-46
2021/05/13 07:26:34;;;;;;;10.02;3.03;;;;;;;;;;5089073;28;20031;-46
2021/05/13 07:29:00;;;;;;;3.05;2.20;;;;;;;;;;5086793;28;20024;-46
2021/05/13 07:31:26;;;;;;;6.50;2.58;;;;;;;;;;5093952;28;20100;-47
2021/05/13 07:33:52;;;;;;;4.22;2.22;;;;;;;;;;5075042;28;20029;-46
2021/05/13 07:36:18;;;;;;;10.15;2.92;;;;;;;;;;5092811;28;20032;-46
2021/05/13 07:38:44;;;;;;;3.92;2.28;;;;;;;;;;5094184;28;20023;-46
2021/05/13 07:41:10;;;;;;;4.90;2.45;;;;;;;;;;5093721;28;20474;-46
2021/05/13 07:43:37;;;;;;;6.15;2.00;;;;;;;;;;5093872;28;20031;-46
2021/05/13 07:46:03;;;;;;;2.17;1.25;;;;;;;;;;5093957;28;20043;-46
2021/05/13 07:48:29;;;;;;;9.50;2.92;;;;;;;;;;5093793;28;20114;-47
2021/05/13 07:50:56;;;;;;;5.00;3.00;;;;;;;;;;5093616;28;20398;-47
2021/05/13 07:53:22;;;;;;;4.85;2.75;;;;;;;;;;5093240;28;20020;-46
2021/05/13 07:55:48;;;;;;;4.60;2.15;;;;;;;;;;5093482;28;20420;-47
2021/05/13 07:58:14;;;;;;;4.20;2.80;;;;;;;;;;5092475;28;20032;-46
2021/05/13 08:00:40;;;;;;;4.03;2.28;;;;;;;;;;5092740;28;20016;-47
2021/05/13 08:03:07;;;;;;;3.03;2.25;;;;;;;;;;5092765;28;20020;-47
2021/05/13 08:05:33;;;;;;;3.75;2.45;;;;;;;;;;5092734;28;20020;-47
2021/05/13 08:07:59;;;;;;;7.15;3.33;;;;;;;;;;5092176;28;20069;-47
2021/05/13 08:10:25;;;;;;;4.00;2.58;;;;;;;;;;5091617;28;20463;-46
2021/05/13 08:12:51;;;;;;;5.85;2.78;;;;;;;;;;5091623;28;20094;-46
2021/05/13 08:15:17;;;;;;;4.10;2.72;;;;;;;;;;5093200;28;20453;-46
2021/05/13 08:17:44;;;;;;;6.22;3.53;;;;;;;;;;5093408;28;20466;-47
2021/05/13 08:20:14;;;;;;;8.40;3.00;;;;;;;;;;5092949;28;20063;-47
2021/05/13 08:22:41;;;;;;;10.45;4.65;;;;;;;;;;5093216;28;20024;-47
2021/05/13 08:25:08;;;;;;;6.07;3.90;;;;;;;;;;5092795;28;20016;-46
2021/05/13 08:27:35;;;;;;;8.80;4.03;;;;;;;;;;5093413;28;20038;-47
2021/05/13 08:30:01;;;;;;;8.15;3.78;;;;;;;;;;5092571;28;20532;-47
2021/05/13 08:32:27;;;;;;;6.43;3.58;;;;;;;;;;5092478;28;20016;-47
2021/05/13 08:34:54;;;;;;;7.55;4.05;;;;;;;;;;5092704;28;20120;-47
2021/05/13 08:37:20;;;;;;;5.53;2.72;;;;;;;;;;5093183;28;20461;-48
2021/05/13 08:39:46;;;;;;;4.43;3.03;;;;;;;;;;5093136;28;20031;-47
2021/05/13 08:42:12;;;;;;;3.05;2.63;;;;;;;;;;5092779;28;20020;-47
2021/05/13 08:44:40;;;;;;;6.40;3.55;;;;;;;;;;5093283;28;20059;-47
2021/05/13 08:47:08;;;;;;;5.72;2.42;;;;;;;;;;5092265;28;20026;-47
2021/05/13 08:49:34;;;;;;;8.82;3.10;;;;;;;;;;5091439;28;20459;-47
2021/05/13 08:52:00;;;;;;;3.88;2.40;;;;;;;;;;5092440;28;20063;-47
2021/05/13 08:54:28;;;;;;;8.90;2.20;;;;;;;;;;5092915;28;20468;-47
2021/05/13 08:56:54;;;;;;;5.05;2.78;;;;;;;;;;5092844;28;20032;-47
2021/05/13 08:59:20;;;;;;;2.05;1.30;;;;;;;;;;5093179;28;20126;-47
2021/05/13 09:01:56;;;;;;;3.17;2.35;;;;;;;;;;5092422;28;20025;-47
2021/05/13 09:04:22;;;;;;;1.55;1.45;;;;;;;;;;5093226;28;20137;-47
2021/05/13 09:06:48;;;;;;;4.00;1.80;;;;;;;;;;5091790;28;20082;-47
2021/05/13 09:09:15;;;;;;;3.38;1.45;;;;;;;;;;5072870;28;20029;-47
2021/05/13 09:11:48;;;;;;;7.28;1.48;;;;;;;;;;5085494;28;20344;-47
2021/05/13 09:14:20;;;;;;;2.97;2.42;;;;;;;;;;5092853;28;20520;-47
2021/05/13 09:16:49;;;;;;;14.70;2.92;;;;;;;;;;5092916;28;20048;-47
2021/05/13 09:19:19;;;;;;;7.85;3.22;;;;;;;;;;5093164;28;20028;-47
2021/05/13 09:21:56;;;;;;;6.35;2.75;;;;;;;;;;5092605;28;20054;-48
2021/05/13 09:24:41;;;;;;;2.05;1.60;;;;;;;;;;5092803;28;20086;-48
2021/05/13 09:27:16;;;;;;;4.50;2.00;;;;;;;;;;5092966;28;20589;-48
2021/05/13 09:29:42;;;;;;;3.00;1.40;;;;;;;;;;5092511;28;20054;-47
2021/05/13 09:32:20;;;;;;;1.38;0.70;;;;;;;;;;5092071;28;20025;-47
2021/05/13 09:34:47;;;;;;;5.97;2.38;;;;;;;;;;5091248;28;20059;-46
2021/05/13 09:37:13;;;;;;;4.30;2.00;;;;;;;;;;5092452;28;20021;-47
2021/05/13 09:39:49;;;;;;;3.33;1.50;;;;;;;;;;5092524;28;20070;-47
2021/05/13 09:42:19;;;;;;;8.93;2.15;;;;;;;;;;5092666;28;20040;-47
2021/05/13 09:44:49;;;;;;;8.95;2.30;;;;;;;;;;5095156;28;20441;-47
2021/05/13 09:47:26;;;;;;;3.72;1.52;;;;;;;;;;5096499;28;20085;-47
2021/05/13 09:50:03;;;;;;;5.03;2.00;;;;;;;;;;5096376;28;20130;-47
2021/05/13 09:52:42;;;;;;;1.98;1.48;;;;;;;;;;5096128;28;20028;-47
2021/05/13 09:55:15;;;;;;;2.28;1.80;;;;;;;;;;5075618;28;20040;-47
2021/05/13 09:57:42;;;;;;;3.30;1.75;;;;;;;;;;5082024;28;20040;-47
2021/05/13 10:00:09;;;;;;;1.48;1.35;;;;;;;;;;5095903;28;20144;-47
2021/05/13 10:02:36;;;;;;;13.45;7.32;;;;;;;;;;5095664;28;20026;-47
2021/05/13 10:05:03;;;;;;;3.67;2.38;;;;;;;;;;5095901;28;20044;-47
2021/05/13 10:07:30;;;;;;;4.20;2.78;;;;;;;;;;5095694;28;20028;-47
2021/05/13 10:09:56;;;;;;;4.95;2.95;;;;;;;;;;5095833;28;20020;-47
2021/05/13 10:12:22;;;;;;;2.20;1.00;;;;;;;;;;5095469;28;20070;-47
2021/05/13 10:14:53;;;;;;;1.23;1.13;;;;;;;;;;5095592;28;20074;-47
2021/05/13 10:17:19;;;;;;;0.88;0.88;;;;;;;;;;5095876;28;20051;-47
2021/05/13 10:19:47;;;;;;;2.25;1.00;;;;;;;;;;5095450;28;20024;-47
2021/05/13 10:22:15;;;;;;;4.55;0.55;;;;;;;;;;5094590;28;20060;-48
2021/05/13 10:24:41;;;;;;;2.55;0.85;;;;;;;;;;5095278;28;20020;-47
2021/05/13 10:27:17;;;;;;;1.95;1.10;;;;;;;;;;5094851;28;20488;-47
2021/05/13 10:29:44;;;;;;;2.45;1.10;;;;;;;;;;5092831;28;20036;-47
2021/05/13 10:32:19;;;;;;;0.80;0.80;;;;;;;;;;5094539;28;20096;-47
2021/05/13 10:34:46;;;;;;;3.75;0.80;;;;;;;;;;5095411;28;20097;-47
2021/05/13 10:37:19;;;;;;;4.18;0.90;;;;;;;;;;5094146;28;20064;-47
2021/05/13 10:40:03;;;;;;;0.65;0.60;;;;;;;;;;5093839;28;20024;-46
2021/05/13 10:42:33;;;;;;;0.80;0.70;;;;;;;;;;5092438;28;20028;-47
2021/05/13 10:44:59;;;;;;;1.33;1.02;;;;;;;;;;5091843;28;20030;-46
2021/05/13 10:47:29;;;;;;;1.10;1.00;;;;;;;;;;5093679;28;20130;-46
2021/05/13 10:49:56;;;;;;;2.03;0.75;;;;;;;;;;5093509;28;20032;-46
2021/05/13 10:52:48;;;;;;;1.17;0.80;;;;;;;;;;5093862;28;20074;-47
2021/05/13 10:55:18;;;;;;;2.80;1.00;;;;;;;;;;5093142;28;20040;-46
2021/05/13 10:57:46;;;;;;;1.80;0.97;;;;;;;;;;5094403;28;20020;-47
2021/05/13 11:00:18;;;;;;;0.75;0.75;;;;;;;;;;5093956;28;20633;-47
2021/05/13 11:02:45;;;;;;;0.80;0.80;;;;;;;;;;5091723;28;20016;-47
2021/05/13 11:05:30;;;;;;;1.48;1.02;;;;;;;;;;5094280;28;20024;-46
2021/05/13 11:08:02;;;;;;;0.90;0.90;;;;;;;;;;5093695;28;20384;-46
2021/05/13 11:10:46;;;;;;;2.20;1.13;;;;;;;;;;5093426;28;20027;-46
2021/05/13 11:13:12;;;;;;;1.58;0.90;;;;;;;;;;5093748;28;20024;-47
2021/05/13 11:15:41;;;;;;;1.13;1.05;;;;;;;;;;5094340;28;20047;-46
2021/05/13 11:18:09;;;;;;;0.50;0.50;;;;;;;;;;5094280;28;20454;-47
2021/05/13 11:20:35;;;;;;;0.85;0.85;;;;;;;;;;5094041;28;20111;-47
2021/05/13 11:23:03;;;;;;;0.60;0.60;;;;;;;;;;5094236;28;20045;-47
2021/05/13 11:25:38;;;;;;;0.40;0.40;;;;;;;;;;5094291;28;20024;-47
2021/05/13 11:28:22;;;;;;;0.35;0.35;;;;;;;;;;5094090;28;20023;-46
2021/05/13 11:30:49;;;;;;;0.75;0.55;;;;;;;;;;5092361;28;20063;-47
2021/05/13 11:33:15;;;;;;;0.30;0.30;;;;;;;;;;5094567;28;20024;-46
2021/05/13 11:35:41;;;;;;;0.28;0.28;;;;;;;;;;5094399;28;20036;-46
2021/05/13 11:38:34;;;;;;;0.30;0.30;;;;;;;;;;5094033;28;20031;-46
2021/05/13 11:41:00;;;;;;;0.40;0.40;;;;;;;;;;5093420;28;20032;-47
2021/05/13 11:43:32;;;;;;;0.50;0.50;;;;;;;;;;5093999;28;20139;-47
2021/05/13 11:45:58;;;;;;;0.45;0.45;;;;;;;;;;5093857;28;20032;-46
2021/05/13 11:48:44;;;;;;;0.68;0.47;;;;;;;;;;5093386;28;20115;-47
2021/05/13 11:51:11;;;;;;;0.30;0.30;;;;;;;;;;5092866;28;20103;-46
2021/05/13 11:53:37;;;;;;;0.45;0.45;;;;;;;;;;5083480;28;20433;-46
2021/05/13 11:56:05;;;;;;;0.20;0.20;;;;;;;;;;5083915;28;20028;-46
2021/05/13 11:58:34;;;;;;;0.30;0.30;;;;;;;;;;5092974;28;20473;-47
2021/05/13 12:01:29;;;;;;;0.80;0.50;;;;;;;;;;5092942;28;20453;-47
2021/05/13 12:03:55;;;;;;;0.32;0.32;;;;;;;;;;5090954;28;20369;-47
2021/05/13 12:06:21;;;;;;;0.52;0.50;;;;;;;;;;5089224;28;20032;-47
2021/05/13 12:08:47;;;;;;;0.93;0.45;;;;;;;;;;5090400;28;20035;-47
2021/05/13 12:11:20;;;;;;;0.65;0.60;;;;;;;;;;5090458;28;20024;-46
2021/05/13 12:13:46;;;;;;;0.30;0.30;;;;;;;;;;5088680;28;20044;-47
2021/05/13 12:16:13;;;;;;;0.40;0.40;;;;;;;;;;5090605;28;20068;-46
2021/05/13 12:18:41;;;;;;;0.50;0.45;;;;;;;;;;5090592;28;20028;-47
2021/05/13 12:21:08;;;;;;;0.47;0.40;;;;;;;;;;5090064;28;20040;-47
2021/05/13 12:23:34;;;;;;;0.30;0.30;;;;;;;;;;5089908;28;20035;-47
2021/05/13 12:26:00;;;;;;;0.50;0.50;;;;;;;;;;5090812;28;20027;-48
2021/05/13 12:28:26;;;;;;;0.30;0.30;;;;;;;;;;5083071;28;20032;-47
2021/05/13 12:30:53;;;;;;;1.92;0.50;;;;;;;;;;5087962;28;20469;-47
2021/05/13 12:33:28;;;;;;;1.25;0.82;;;;;;;;;;5090358;28;20036;-47
2021/05/13 12:35:54;;;;;;;0.88;0.73;;;;;;;;;;5090926;28;20046;-47
2021/05/13 12:38:21;;;;;;;5.50;1.10;;;;;;;;;;5090731;28;20024;-47
2021/05/13 12:40:48;;;;;;;1.30;1.20;;;;;;;;;;5077895;28;20485;-47
2021/05/13 12:43:20;;;;;;;4.63;1.48;;;;;;;;;;5072704;28;20104;-47
2021/05/13 12:45:50;;;;;;;0.95;0.70;;;;;;;;;;5073113;28;20052;-47
2021/05/13 12:48:26;;;;;;;0.70;0.65;;;;;;;;;;5072906;28;20020;-47
2021/05/13 12:50:55;;;;;;;0.90;0.60;;;;;;;;;;5075396;28;20082;-47
2021/05/13 12:53:21;;;;;;;6.50;0.90;;;;;;;;;;5093051;28;20021;-47
2021/05/13 12:55:48;;;;;;;0.70;0.63;;;;;;;;;;5093337;28;20050;-46
2021/05/13 12:58:15;;;;;;;2.20;1.70;;;;;;;;;;5093086;28;20085;-47
2021/05/13 13:00:42;;;;;;;1.90;0.80;;;;;;;;;;5092799;28;20028;-47
2021/05/13 13:03:14;;;;;;;2.08;0.80;;;;;;;;;;5093225;28;20080;-48
2021/05/13 13:05:40;;;;;;;0.70;0.70;;;;;;;;;;5091811;28;20124;-47
2021/05/13 13:08:06;;;;;;;2.60;0.90;;;;;;;;;;5092777;28;20357;-47
2021/05/13 13:10:39;;;;;;;1.35;0.60;;;;;;;;;;5089207;28;20020;-47
2021/05/13 13:13:20;;;;;;;0.70;0.70;;;;;;;;;;5089501;28;20028;-47
2021/05/13 13:15:53;;;;;;;0.50;0.50;;;;;;;;;;5092763;28;20089;-47
2021/05/13 13:18:22;;;;;;;1.45;0.93;;;;;;;;;;5093551;28;20066;-47
2021/05/13 13:20:49;;;;;;;0.65;0.65;;;;;;;;;;5096515;28;20040;-47
2021/05/13 13:23:15;;;;;;;1.50;0.77;;;;;;;;;;5095130;28;20047;-48
2021/05/13 13:25:41;;;;;;;2.05;0.75;;;;;;;;;;5096874;28;20445;-47
2021/05/13 13:28:07;;;;;;;2.42;0.90;;;;;;;;;;5094998;28;20024;-47
2021/05/13 13:30:33;;;;;;;3.33;1.27;;;;;;;;;;5095750;28;20411;-48
2021/05/13 13:33:00;;;;;;;3.05;1.33;;;;;;;;;;5096165;28;20517;-48
2021/05/13 13:35:27;;;;;;;1.25;0.88;;;;;;;;;;5096137;28;20115;-48
2021/05/13 13:37:53;;;;;;;2.45;0.82;;;;;;;;;;5095463;28;20036;-48
2021/05/13 13:40:20;;;;;;;0.77;0.70;;;;;;;;;;5095369;28;20150;-48
2021/05/13 13:42:46;;;;;;;2.55;0.70;;;;;;;;;;5096827;28;20016;-47
2021/05/13 13:45:12;;;;;;;3.08;1.05;;;;;;;;;;5094338;28;20024;-48
2021/05/13 13:47:38;;;;;;;4.07;0.98;;;;;;;;;;5094351;28;20108;-47
2021/05/13 13:50:04;;;;;;;0.98;0.77;;;;;;;;;;5095419;28;20062;-47
2021/05/13 13:52:30;;;;;;;1.73;1.27;;;;;;;;;;5095316;28;20047;-47
2021/05/13 13:54:56;;;;;;;0.88;0.88;;;;;;;;;;5096027;28;20121;-47
2021/05/13 13:57:22;;;;;;;1.05;0.75;;;;;;;;;;5096325;28;20020;-48
2021/05/13 13:59:48;;;;;;;7.50;1.25;;;;;;;;;;5096097;28;20028;-47
2021/05/13 14:02:14;;;;;;;1.15;0.70;;;;;;;;;;5095947;28;20051;-48
2021/05/13 14:04:40;;;;;;;0.98;0.80;;;;;;;;;;5095488;28;20450;-47
2021/05/13 14:07:06;;;;;;;2.78;1.02;;;;;;;;;;5091608;28;20021;-47
2021/05/13 14:09:32;;;;;;;2.05;1.10;;;;;;;;;;5075301;28;20024;-47
2021/05/13 14:11:58;;;;;;;5.15;1.40;;;;;;;;;;5073752;28;20103;-47
2021/05/13 14:14:24;;;;;;;1.60;1.30;;;;;;;;;;5075042;28;20035;-47
2021/05/13 14:16:50;;;;;;;1.20;1.10;;;;;;;;;;5075562;28;20031;-47
2021/05/13 14:19:18;;;;;;;1.75;1.20;;;;;;;;;;5075707;28;20362;-48
2021/05/13 14:21:44;;;;;;;2.80;1.48;;;;;;;;;;5073950;28;20028;-46
2021/05/13 14:24:10;;;;;;;2.00;1.23;;;;;;;;;;5074934;28;20362;-47
2021/05/13 14:26:36;;;;;;;2.33;1.50;;;;;;;;;;5080996;28;20024;-48
2021/05/13 14:29:02;;;;;;;4.45;1.45;;;;;;;;;;5094107;28;20419;-48
2021/05/13 14:31:28;;;;;;;2.15;1.10;;;;;;;;;;5094825;28;20027;-49
2021/05/13 14:33:54;;;;;;;2.53;1.90;;;;;;;;;;5094735;28;20024;-49
2021/05/13 14:36:20;;;;;;;1.75;1.00;;;;;;;;;;5094793;28;20081;-48
2021/05/13 14:38:46;;;;;;;2.10;1.08;;;;;;;;;;5095356;28;20357;-49
2021/05/13 14:41:12;;;;;;;7.05;1.10;;;;;;;;;;5093450;28;20020;-48
2021/05/13 14:43:38;;;;;;;4.35;1.00;;;;;;;;;;5095154;28;20442;-48
2021/05/13 14:46:04;;;;;;;0.60;0.60;;;;;;;;;;5095266;28;20085;-48
2021/05/13 14:48:44;;;;;;;1.48;0.85;;;;;;;;;;5094650;28;20058;-48
2021/05/13 14:51:10;;;;;;;0.85;0.73;;;;;;;;;;5091585;28;20035;-48